sensor_id;sensor_type;location;lat;lon;timestamp;P1;durP1;ratioP1;P2;durP2;ratioP2
50900;SDS011;36879;51.416;6.678;2022-09-16T00:00:24;5.43;;;2.42;;
50900;SDS011;36879;51.416;6.678;2022-09-16T00:02:54;5.10;;;0.93;;
50900;SDS011;36879;51.416;6.678;2022-09-16T00:05:21;2.42;;;1.25;;
50900;SDS011;36879;51.416;6.678;2022-09-16T00:07:47;3.17;;;0.93;;
50900;SDS011;36879;51.416;6.678;2022-09-16T00:10:14;1.95;;;1.00;;
50900;SDS011;36879;51.416;6.678;2022-09-16T00:12:40;2.95;;;0.80;;
50900;SDS011;36879;51.416;6.678;2022-09-16T00:15:06;4.55;;;1.48;;
50900;SDS011;36879;51.416;6.678;2022-09-16T00:17:32;3.95;;;1.15;;
50900;SDS011;36879;51.416;6.678;2022-09-16T00:19:58;6.03;;;1.35;;
50900;SDS011;36879;51.416;6.678;2022-09-16T00:22:26;5.75;;;1.08;;
50900;SDS011;36879;51.416;6.678;2022-09-16T00:24:52;2.03;;;0.70;;
50900;SDS011;36879;51.416;6.678;2022-09-16T00:27:18;4.25;;;1.85;;
50900;SDS011;36879;51.416;6.678;2022-09-16T00:29:44;2.30;;;0.80;;
50900;SDS011;36879;51.416;6.678;2022-09-16T00:32:10;6.13;;;1.83;;
50900;SDS011;36879;51.416;6.678;2022-09-16T00:34:36;3.33;;;1.08;;
50900;SDS011;36879;51.416;6.678;2022-09-16T00:37:02;7.55;;;1.33;;
50900;SDS011;36879;51.416;6.678;2022-09-16T00:39:28;4.03;;;1.67;;
50900;SDS011;36879;51.416;6.678;2022-09-16T00:41:54;4.30;;;0.90;;
50900;SDS011;36879;51.416;6.678;2022-09-16T00:47:05;4.80;;;1.17;;
50900;SDS011;36879;51.416;6.678;2022-09-16T00:49:31;10.48;;;2.58;;
50900;SDS011;36879;51.416;6.678;2022-09-16T00:51:58;6.15;;;1.30;;
50900;SDS011;36879;51.416;6.678;2022-09-16T00:54:26;1.70;;;0.95;;
50900;SDS011;36879;51.416;6.678;2022-09-16T00:56:53;10.27;;;2.47;;
50900;SDS011;36879;51.416;6.678;2022-09-16T00:59:22;3.03;;;1.25;;
50900;SDS011;36879;51.416;6.678;2022-09-16T01:01:49;3.25;;;1.00;;
50900;SDS011;36879;51.416;6.678;2022-09-16T01:04:16;2.13;;;0.68;;
50900;SDS011;36879;51.416;6.678;2022-09-16T01:06:43;1.88;;;0.73;;
50900;SDS011;36879;51.416;6.678;2022-09-16T01:09:10;7.00;;;1.80;;
50900;SDS011;36879;51.416;6.678;2022-09-16T01:11:36;7.30;;;1.33;;
50900;SDS011;36879;51.416;6.678;2022-09-16T01:14:02;3.10;;;1.13;;
50900;SDS011;36879;51.416;6.678;2022-09-16T01:16:56;1.95;;;1.13;;
50900;SDS011;36879;51.416;6.678;2022-09-16T01:21:54;2.08;;;0.90;;
50900;SDS011;36879;51.416;6.678;2022-09-16T01:40:18;4.75;;;0.80;;
50900;SDS011;36879;51.416;6.678;2022-09-16T01:42:59;9.20;;;1.42;;
50900;SDS011;36879;51.416;6.678;2022-09-16T01:50:43;5.97;;;1.42;;
50900;SDS011;36879;51.416;6.678;2022-09-16T02:00:38;3.87;;;1.10;;
50900;SDS011;36879;51.416;6.678;2022-09-16T02:03:08;3.33;;;1.00;;
50900;SDS011;36879;51.416;6.678;2022-09-16T02:05:43;5.70;;;1.20;;
50900;SDS011;36879;51.416;6.678;2022-09-16T02:08:12;6.28;;;1.90;;
50900;SDS011;36879;51.416;6.678;2022-09-16T02:10:44;3.58;;;1.00;;
50900;SDS011;36879;51.416;6.678;2022-09-16T02:13:22;3.55;;;0.93;;
50900;SDS011;36879;51.416;6.678;2022-09-16T02:15:51;2.67;;;1.08;;
50900;SDS011;36879;51.416;6.678;2022-09-16T02:18:20;3.20;;;0.90;;
50900;SDS011;36879;51.416;6.678;2022-09-16T02:20:47;1.70;;;1.10;;
50900;SDS011;36879;51.416;6.678;2022-09-16T02:23:16;3.25;;;1.20;;
50900;SDS011;36879;51.416;6.678;2022-09-16T02:25:44;4.20;;;1.20;;
50900;SDS011;36879;51.416;6.678;2022-09-16T02:28:11;7.15;;;2.05;;
50900;SDS011;36879;51.416;6.678;2022-09-16T02:30:40;5.68;;;0.93;;
50900;SDS011;36879;51.416;6.678;2022-09-16T02:33:08;3.05;;;1.20;;
50900;SDS011;36879;51.416;6.678;2022-09-16T02:35:35;4.63;;;1.10;;
50900;SDS011;36879;51.416;6.678;2022-09-16T02:38:03;4.53;;;1.23;;
50900;SDS011;36879;51.416;6.678;2022-09-16T02:40:33;2.88;;;1.10;;
50900;SDS011;36879;51.416;6.678;2022-09-16T02:42:59;2.53;;;1.20;;
50900;SDS011;36879;51.416;6.678;2022-09-16T02:45:30;3.08;;;1.10;;
50900;SDS011;36879;51.416;6.678;2022-09-16T02:48:01;2.92;;;1.00;;
50900;SDS011;36879;51.416;6.678;2022-09-16T02:53:04;5.00;;;1.67;;
50900;SDS011;36879;51.416;6.678;2022-09-16T02:55:35;7.35;;;1.92;;
50900;SDS011;36879;51.416;6.678;2022-09-16T02:58:04;7.10;;;1.30;;
50900;SDS011;36879;51.416;6.678;2022-09-16T03:00:31;6.55;;;2.08;;
50900;SDS011;36879;51.416;6.678;2022-09-16T03:02:58;4.63;;;1.30;;
50900;SDS011;36879;51.416;6.678;2022-09-16T03:05:26;3.35;;;1.30;;
50900;SDS011;36879;51.416;6.678;2022-09-16T03:07:53;2.40;;;1.33;;
50900;SDS011;36879;51.416;6.678;2022-09-16T03:10:19;6.78;;;1.98;;
50900;SDS011;36879;51.416;6.678;2022-09-16T03:15:35;3.60;;;1.35;;
50900;SDS011;36879;51.416;6.678;2022-09-16T03:23:16;3.88;;;1.42;;
50900;SDS011;36879;51.416;6.678;2022-09-16T03:28:11;10.32;;;1.23;;
50900;SDS011;36879;51.416;6.678;2022-09-16T03:30:52;3.38;;;1.30;;
50900;SDS011;36879;51.416;6.678;2022-09-16T03:33:24;5.10;;;2.65;;
50900;SDS011;36879;51.416;6.678;2022-09-16T03:35:52;2.38;;;0.88;;
50900;SDS011;36879;51.416;6.678;2022-09-16T03:38:21;4.80;;;3.13;;
50900;SDS011;36879;51.416;6.678;2022-09-16T03:40:48;2.60;;;1.10;;
50900;SDS011;36879;51.416;6.678;2022-09-16T03:43:14;4.55;;;1.02;;
50900;SDS011;36879;51.416;6.678;2022-09-16T03:45:41;3.60;;;1.30;;
50900;SDS011;36879;51.416;6.678;2022-09-16T03:48:08;2.22;;;1.00;;
50900;SDS011;36879;51.416;6.678;2022-09-16T03:50:34;3.35;;;1.40;;
50900;SDS011;36879;51.416;6.678;2022-09-16T03:53:01;5.57;;;1.25;;
50900;SDS011;36879;51.416;6.678;2022-09-16T03:55:27;5.70;;;1.90;;
50900;SDS011;36879;51.416;6.678;2022-09-16T03:57:53;5.10;;;1.27;;
50900;SDS011;36879;51.416;6.678;2022-09-16T04:00:19;2.80;;;1.55;;
50900;SDS011;36879;51.416;6.678;2022-09-16T04:02:47;5.03;;;1.38;;
50900;SDS011;36879;51.416;6.678;2022-09-16T04:05:13;4.38;;;1.70;;
50900;SDS011;36879;51.416;6.678;2022-09-16T04:07:39;4.70;;;2.33;;
50900;SDS011;36879;51.416;6.678;2022-09-16T04:10:05;5.47;;;1.55;;
50900;SDS011;36879;51.416;6.678;2022-09-16T04:12:31;3.42;;;1.70;;
50900;SDS011;36879;51.416;6.678;2022-09-16T04:14:57;7.25;;;2.22;;
50900;SDS011;36879;51.416;6.678;2022-09-16T04:17:23;2.85;;;1.30;;
50900;SDS011;36879;51.416;6.678;2022-09-16T04:19:49;5.47;;;2.05;;
50900;SDS011;36879;51.416;6.678;2022-09-16T04:22:16;14.43;;;2.38;;
50900;SDS011;36879;51.416;6.678;2022-09-16T04:24:42;3.83;;;1.75;;
50900;SDS011;36879;51.416;6.678;2022-09-16T04:27:08;6.40;;;1.38;;
50900;SDS011;36879;51.416;6.678;2022-09-16T04:29:34;3.45;;;1.63;;
50900;SDS011;36879;51.416;6.678;2022-09-16T04:32:00;2.38;;;1.20;;
50900;SDS011;36879;51.416;6.678;2022-09-16T04:34:26;2.92;;;1.00;;
50900;SDS011;36879;51.416;6.678;2022-09-16T04:36:52;4.35;;;2.03;;
50900;SDS011;36879;51.416;6.678;2022-09-16T04:39:18;3.22;;;1.02;;
50900;SDS011;36879;51.416;6.678;2022-09-16T04:41:45;4.47;;;1.38;;
50900;SDS011;36879;51.416;6.678;2022-09-16T04:44:11;2.30;;;1.45;;
50900;SDS011;36879;51.416;6.678;2022-09-16T04:46:37;2.97;;;1.40;;
50900;SDS011;36879;51.416;6.678;2022-09-16T04:49:03;4.18;;;1.55;;
50900;SDS011;36879;51.416;6.678;2022-09-16T04:51:29;6.22;;;1.77;;
50900;SDS011;36879;51.416;6.678;2022-09-16T04:53:56;8.98;;;2.08;;
50900;SDS011;36879;51.416;6.678;2022-09-16T04:56:24;7.35;;;1.63;;
50900;SDS011;36879;51.416;6.678;2022-09-16T04:58:51;9.68;;;2.60;;
50900;SDS011;36879;51.416;6.678;2022-09-16T05:01:21;3.38;;;1.60;;
50900;SDS011;36879;51.416;6.678;2022-09-16T05:03:51;4.40;;;2.05;;
50900;SDS011;36879;51.416;6.678;2022-09-16T05:06:18;5.07;;;2.15;;
50900;SDS011;36879;51.416;6.678;2022-09-16T05:08:45;4.53;;;2.10;;
50900;SDS011;36879;51.416;6.678;2022-09-16T05:11:13;12.82;;;2.97;;
50900;SDS011;36879;51.416;6.678;2022-09-16T05:13:39;3.67;;;2.38;;
50900;SDS011;36879;51.416;6.678;2022-09-16T05:16:06;8.43;;;3.22;;
50900;SDS011;36879;51.416;6.678;2022-09-16T05:18:33;6.10;;;2.30;;
50900;SDS011;36879;51.416;6.678;2022-09-16T05:20:59;7.00;;;2.50;;
50900;SDS011;36879;51.416;6.678;2022-09-16T05:23:26;4.82;;;2.05;;
50900;SDS011;36879;51.416;6.678;2022-09-16T05:25:52;6.88;;;3.10;;
50900;SDS011;36879;51.416;6.678;2022-09-16T05:28:18;6.97;;;2.33;;
50900;SDS011;36879;51.416;6.678;2022-09-16T05:30:44;3.58;;;2.22;;
50900;SDS011;36879;51.416;6.678;2022-09-16T05:33:10;7.30;;;3.03;;
50900;SDS011;36879;51.416;6.678;2022-09-16T05:35:36;7.70;;;2.60;;
50900;SDS011;36879;51.416;6.678;2022-09-16T05:38:02;7.65;;;3.55;;
50900;SDS011;36879;51.416;6.678;2022-09-16T05:40:28;8.35;;;2.95;;
50900;SDS011;36879;51.416;6.678;2022-09-16T05:42:54;5.63;;;2.50;;
50900;SDS011;36879;51.416;6.678;2022-09-16T05:45:20;4.00;;;1.92;;
50900;SDS011;36879;51.416;6.678;2022-09-16T05:47:47;6.90;;;2.88;;
50900;SDS011;36879;51.416;6.678;2022-09-16T05:50:13;4.20;;;3.10;;
50900;SDS011;36879;51.416;6.678;2022-09-16T05:52:39;5.25;;;2.55;;
50900;SDS011;36879;51.416;6.678;2022-09-16T05:55:05;8.57;;;3.47;;
50900;SDS011;36879;51.416;6.678;2022-09-16T05:57:31;7.50;;;2.78;;
50900;SDS011;36879;51.416;6.678;2022-09-16T05:59:57;7.40;;;2.22;;
50900;SDS011;36879;51.416;6.678;2022-09-16T06:02:23;7.05;;;2.45;;
50900;SDS011;36879;51.416;6.678;2022-09-16T06:04:49;3.63;;;2.00;;
50900;SDS011;36879;51.416;6.678;2022-09-16T06:07:15;10.55;;;3.55;;
50900;SDS011;36879;51.416;6.678;2022-09-16T06:09:41;5.20;;;2.90;;
50900;SDS011;36879;51.416;6.678;2022-09-16T06:12:08;7.97;;;2.75;;
50900;SDS011;36879;51.416;6.678;2022-09-16T06:14:34;7.28;;;2.10;;
50900;SDS011;36879;51.416;6.678;2022-09-16T06:17:00;4.13;;;2.08;;
50900;SDS011;36879;51.416;6.678;2022-09-16T06:19:27;5.40;;;2.15;;
50900;SDS011;36879;51.416;6.678;2022-09-16T06:21:53;8.88;;;1.90;;
50900;SDS011;36879;51.416;6.678;2022-09-16T06:24:19;4.97;;;1.95;;
50900;SDS011;36879;51.416;6.678;2022-09-16T06:26:46;4.18;;;2.38;;
50900;SDS011;36879;51.416;6.678;2022-09-16T06:29:12;3.72;;;2.00;;
50900;SDS011;36879;51.416;6.678;2022-09-16T06:31:39;6.15;;;1.88;;
50900;SDS011;36879;51.416;6.678;2022-09-16T06:34:05;4.53;;;1.80;;
50900;SDS011;36879;51.416;6.678;2022-09-16T06:36:35;7.65;;;2.20;;
50900;SDS011;36879;51.416;6.678;2022-09-16T06:39:02;5.05;;;2.58;;
50900;SDS011;36879;51.416;6.678;2022-09-16T06:41:30;3.70;;;1.67;;
50900;SDS011;36879;51.416;6.678;2022-09-16T06:43:57;4.95;;;1.98;;
50900;SDS011;36879;51.416;6.678;2022-09-16T06:46:24;7.13;;;1.85;;
50900;SDS011;36879;51.416;6.678;2022-09-16T06:48:51;4.82;;;1.95;;
50900;SDS011;36879;51.416;6.678;2022-09-16T06:51:20;4.93;;;1.77;;
50900;SDS011;36879;51.416;6.678;2022-09-16T06:53:47;2.97;;;1.73;;
50900;SDS011;36879;51.416;6.678;2022-09-16T06:56:14;6.43;;;1.83;;
50900;SDS011;36879;51.416;6.678;2022-09-16T06:58:41;3.50;;;1.60;;
50900;SDS011;36879;51.416;6.678;2022-09-16T07:01:12;3.67;;;1.58;;
50900;SDS011;36879;51.416;6.678;2022-09-16T07:03:39;4.78;;;1.40;;
50900;SDS011;36879;51.416;6.678;2022-09-16T07:06:06;6.90;;;1.88;;
50900;SDS011;36879;51.416;6.678;2022-09-16T07:08:32;10.52;;;1.88;;
50900;SDS011;36879;51.416;6.678;2022-09-16T07:11:00;5.68;;;1.67;;
50900;SDS011;36879;51.416;6.678;2022-09-16T07:13:26;3.45;;;1.63;;
50900;SDS011;36879;51.416;6.678;2022-09-16T07:15:52;3.97;;;1.88;;
50900;SDS011;36879;51.416;6.678;2022-09-16T07:18:18;6.35;;;1.67;;
50900;SDS011;36879;51.416;6.678;2022-09-16T07:20:44;4.43;;;1.90;;
50900;SDS011;36879;51.416;6.678;2022-09-16T07:23:10;7.28;;;2.92;;
50900;SDS011;36879;51.416;6.678;2022-09-16T07:25:36;4.78;;;2.00;;
50900;SDS011;36879;51.416;6.678;2022-09-16T07:28:02;3.47;;;1.55;;
50900;SDS011;36879;51.416;6.678;2022-09-16T07:30:28;4.07;;;2.03;;
50900;SDS011;36879;51.416;6.678;2022-09-16T07:32:55;5.63;;;2.60;;
50900;SDS011;36879;51.416;6.678;2022-09-16T07:35:21;6.40;;;2.00;;
50900;SDS011;36879;51.416;6.678;2022-09-16T07:37:47;6.50;;;1.75;;
50900;SDS011;36879;51.416;6.678;2022-09-16T07:40:13;3.25;;;1.60;;
50900;SDS011;36879;51.416;6.678;2022-09-16T07:42:40;3.78;;;2.80;;
50900;SDS011;36879;51.416;6.678;2022-09-16T07:45:07;3.58;;;1.50;;
50900;SDS011;36879;51.416;6.678;2022-09-16T07:47:33;8.73;;;1.75;;
50900;SDS011;36879;51.416;6.678;2022-09-16T07:49:59;4.45;;;1.73;;
50900;SDS011;36879;51.416;6.678;2022-09-16T07:52:25;4.05;;;1.40;;
50900;SDS011;36879;51.416;6.678;2022-09-16T07:54:56;5.57;;;1.70;;
50900;SDS011;36879;51.416;6.678;2022-09-16T07:57:22;5.75;;;1.75;;
50900;SDS011;36879;51.416;6.678;2022-09-16T07:59:49;2.85;;;1.23;;
50900;SDS011;36879;51.416;6.678;2022-09-16T08:02:15;3.55;;;1.40;;
50900;SDS011;36879;51.416;6.678;2022-09-16T08:04:41;2.67;;;1.42;;
50900;SDS011;36879;51.416;6.678;2022-09-16T08:07:08;4.22;;;1.42;;
50900;SDS011;36879;51.416;6.678;2022-09-16T08:09:33;4.10;;;1.15;;
50900;SDS011;36879;51.416;6.678;2022-09-16T08:12:02;1.75;;;1.00;;
50900;SDS011;36879;51.416;6.678;2022-09-16T08:14:29;1.23;;;0.90;;
50900;SDS011;36879;51.416;6.678;2022-09-16T08:16:55;2.33;;;0.98;;
50900;SDS011;36879;51.416;6.678;2022-09-16T08:19:21;2.75;;;1.05;;
50900;SDS011;36879;51.416;6.678;2022-09-16T08:21:47;2.08;;;1.10;;
50900;SDS011;36879;51.416;6.678;2022-09-16T08:24:13;4.28;;;1.70;;
50900;SDS011;36879;51.416;6.678;2022-09-16T08:26:40;2.00;;;1.00;;
50900;SDS011;36879;51.416;6.678;2022-09-16T08:29:06;3.75;;;1.70;;
50900;SDS011;36879;51.416;6.678;2022-09-16T08:31:33;2.28;;;0.90;;
50900;SDS011;36879;51.416;6.678;2022-09-16T08:33:58;4.80;;;1.20;;
50900;SDS011;36879;51.416;6.678;2022-09-16T08:36:24;5.45;;;1.17;;
50900;SDS011;36879;51.416;6.678;2022-09-16T08:38:51;2.17;;;0.80;;
50900;SDS011;36879;51.416;6.678;2022-09-16T08:46:32;2.95;;;0.80;;
50900;SDS011;36879;51.416;6.678;2022-09-16T08:51:37;2.03;;;0.90;;
50900;SDS011;36879;51.416;6.678;2022-09-16T08:54:08;2.15;;;0.98;;
50900;SDS011;36879;51.416;6.678;2022-09-16T08:56:36;4.22;;;0.80;;
50900;SDS011;36879;51.416;6.678;2022-09-16T08:59:03;3.40;;;1.00;;
50900;SDS011;36879;51.416;6.678;2022-09-16T09:01:38;1.25;;;0.60;;
50900;SDS011;36879;51.416;6.678;2022-09-16T09:04:06;5.00;;;1.42;;
50900;SDS011;36879;51.416;6.678;2022-09-16T09:30:26;5.10;;;0.85;;
50900;SDS011;36879;51.416;6.678;2022-09-16T09:32:59;2.50;;;0.77;;
50900;SDS011;36879;51.416;6.678;2022-09-16T09:40:59;0.93;;;0.40;;
50900;SDS011;36879;51.416;6.678;2022-09-16T09:43:30;3.17;;;0.60;;
50900;SDS011;36879;51.416;6.678;2022-09-16T09:46:03;1.52;;;0.70;;
50900;SDS011;36879;51.416;6.678;2022-09-16T09:50:59;1.33;;;0.50;;
50900;SDS011;36879;51.416;6.678;2022-09-16T09:53:34;0.40;;;0.30;;
50900;SDS011;36879;51.416;6.678;2022-09-16T09:58:37;3.10;;;0.70;;
50900;SDS011;36879;51.416;6.678;2022-09-16T10:01:05;3.25;;;0.70;;
50900;SDS011;36879;51.416;6.678;2022-09-16T10:03:31;1.20;;;0.40;;
50900;SDS011;36879;51.416;6.678;2022-09-16T10:05:58;1.40;;;0.50;;
50900;SDS011;36879;51.416;6.678;2022-09-16T10:10:51;3.30;;;0.60;;
50900;SDS011;36879;51.416;6.678;2022-09-16T10:13:18;4.90;;;1.00;;
50900;SDS011;36879;51.416;6.678;2022-09-16T10:15:45;5.68;;;1.10;;
50900;SDS011;36879;51.416;6.678;2022-09-16T10:18:13;2.05;;;0.70;;
50900;SDS011;36879;51.416;6.678;2022-09-16T10:20:41;0.60;;;0.50;;
50900;SDS011;36879;51.416;6.678;2022-09-16T10:25:33;4.00;;;0.75;;
50900;SDS011;36879;51.416;6.678;2022-09-16T10:28:00;1.33;;;0.40;;
50900;SDS011;36879;51.416;6.678;2022-09-16T10:30:28;1.48;;;0.70;;
50900;SDS011;36879;51.416;6.678;2022-09-16T10:33:02;2.67;;;0.68;;
50900;SDS011;36879;51.416;6.678;2022-09-16T10:38:15;2.15;;;0.60;;
50900;SDS011;36879;51.416;6.678;2022-09-16T10:40:49;2.42;;;0.47;;
50900;SDS011;36879;51.416;6.678;2022-09-16T10:43:16;3.22;;;1.05;;
50900;SDS011;36879;51.416;6.678;2022-09-16T10:45:46;2.15;;;0.50;;
50900;SDS011;36879;51.416;6.678;2022-09-16T10:48:18;0.82;;;0.55;;
50900;SDS011;36879;51.416;6.678;2022-09-16T10:50:54;8.52;;;1.00;;
50900;SDS011;36879;51.416;6.678;2022-09-16T10:53:21;1.30;;;0.50;;
50900;SDS011;36879;51.416;6.678;2022-09-16T10:55:57;3.40;;;0.85;;
50900;SDS011;36879;51.416;6.678;2022-09-16T10:58:24;4.90;;;0.90;;
50900;SDS011;36879;51.416;6.678;2022-09-16T11:03:39;3.88;;;0.68;;
50900;SDS011;36879;51.416;6.678;2022-09-16T11:06:15;2.20;;;0.70;;
50900;SDS011;36879;51.416;6.678;2022-09-16T11:11:41;1.15;;;0.70;;
50900;SDS011;36879;51.416;6.678;2022-09-16T11:22:29;1.80;;;0.70;;
50900;SDS011;36879;51.416;6.678;2022-09-16T11:32:45;5.55;;;2.00;;
50900;SDS011;36879;51.416;6.678;2022-09-16T11:38:04;2.50;;;0.90;;
50900;SDS011;36879;51.416;6.678;2022-09-16T11:40:55;1.67;;;1.00;;
50900;SDS011;36879;51.416;6.678;2022-09-16T11:54:38;1.38;;;0.80;;
50900;SDS011;36879;51.416;6.678;2022-09-16T11:56:43;1.42;;;0.93;;
50900;SDS011;36879;51.416;6.678;2022-09-16T12:01:44;3.63;;;1.35;;
50900;SDS011;36879;51.416;6.678;2022-09-16T12:06:57;2.83;;;0.95;;
50900;SDS011;36879;51.416;6.678;2022-09-16T12:09:32;3.55;;;0.73;;
50900;SDS011;36879;51.416;6.678;2022-09-16T12:12:14;3.53;;;0.70;;
50900;SDS011;36879;51.416;6.678;2022-09-16T12:14:56;1.13;;;0.73;;
50900;SDS011;36879;51.416;6.678;2022-09-16T12:17:25;0.77;;;0.43;;
50900;SDS011;36879;51.416;6.678;2022-09-16T12:25:13;1.88;;;0.57;;
50900;SDS011;36879;51.416;6.678;2022-09-16T12:30:30;1.80;;;0.60;;
50900;SDS011;36879;51.416;6.678;2022-09-16T12:35:22;1.25;;;0.40;;
50900;SDS011;36879;51.416;6.678;2022-09-16T12:37:50;0.85;;;0.35;;
50900;SDS011;36879;51.416;6.678;2022-09-16T12:40:24;0.50;;;0.30;;
50900;SDS011;36879;51.416;6.678;2022-09-16T13:01:37;4.18;;;0.47;;
50900;SDS011;36879;51.416;6.678;2022-09-16T13:04:13;1.00;;;0.57;;
50900;SDS011;36879;51.416;6.678;2022-09-16T13:06:45;1.25;;;0.63;;
50900;SDS011;36879;51.416;6.678;2022-09-16T13:11:51;1.90;;;0.70;;
50900;SDS011;36879;51.416;6.678;2022-09-16T13:14:24;1.08;;;0.60;;
50900;SDS011;36879;51.416;6.678;2022-09-16T13:16:53;0.88;;;0.52;;
50900;SDS011;36879;51.416;6.678;2022-09-16T13:24:46;6.35;;;1.10;;
50900;SDS011;36879;51.416;6.678;2022-09-16T13:27:32;2.90;;;1.30;;
50900;SDS011;36879;51.416;6.678;2022-09-16T13:32:42;9.48;;;1.60;;
50900;SDS011;36879;51.416;6.678;2022-09-16T13:37:51;11.68;;;2.38;;
50900;SDS011;36879;51.416;6.678;2022-09-16T13:40:22;2.42;;;1.20;;
50900;SDS011;36879;51.416;6.678;2022-09-16T13:42:49;2.72;;;0.95;;
50900;SDS011;36879;51.416;6.678;2022-09-16T13:47:57;4.68;;;0.85;;
50900;SDS011;36879;51.416;6.678;2022-09-16T13:50:24;2.13;;;0.60;;
50900;SDS011;36879;51.416;6.678;2022-09-16T13:52:51;3.50;;;0.95;;
50900;SDS011;36879;51.416;6.678;2022-09-16T13:55:19;1.70;;;0.60;;
50900;SDS011;36879;51.416;6.678;2022-09-16T13:57:56;0.65;;;0.60;;
50900;SDS011;36879;51.416;6.678;2022-09-16T14:00:24;1.92;;;0.68;;
50900;SDS011;36879;51.416;6.678;2022-09-16T14:03:00;0.73;;;0.52;;
50900;SDS011;36879;51.416;6.678;2022-09-16T14:08:21;0.52;;;0.32;;
50900;SDS011;36879;51.416;6.678;2022-09-16T14:10:53;1.37;;;0.67;;
50900;SDS011;36879;51.416;6.678;2022-09-16T14:13:22;2.05;;;0.63;;
50900;SDS011;36879;51.416;6.678;2022-09-16T14:15:49;0.70;;;0.60;;
50900;SDS011;36879;51.416;6.678;2022-09-16T14:18:17;3.70;;;1.02;;
50900;SDS011;36879;51.416;6.678;2022-09-16T14:20:54;1.27;;;0.50;;
50900;SDS011;36879;51.416;6.678;2022-09-16T14:23:22;0.68;;;0.40;;
50900;SDS011;36879;51.416;6.678;2022-09-16T14:25:48;2.17;;;0.70;;
50900;SDS011;36879;51.416;6.678;2022-09-16T14:28:18;1.20;;;0.63;;
50900;SDS011;36879;51.416;6.678;2022-09-16T14:30:46;4.18;;;0.98;;
50900;SDS011;36879;51.416;6.678;2022-09-16T14:33:13;1.30;;;0.80;;
50900;SDS011;36879;51.416;6.678;2022-09-16T14:35:39;5.75;;;1.10;;
50900;SDS011;36879;51.416;6.678;2022-09-16T14:38:06;1.55;;;0.50;;
50900;SDS011;36879;51.416;6.678;2022-09-16T14:40:32;3.60;;;1.10;;
50900;SDS011;36879;51.416;6.678;2022-09-16T14:43:04;2.75;;;0.93;;
50900;SDS011;36879;51.416;6.678;2022-09-16T14:45:31;4.60;;;1.02;;
50900;SDS011;36879;51.416;6.678;2022-09-16T14:47:58;3.47;;;0.82;;
50900;SDS011;36879;51.416;6.678;2022-09-16T14:52:55;3.65;;;0.90;;
50900;SDS011;36879;51.416;6.678;2022-09-16T14:55:22;2.92;;;1.23;;
50900;SDS011;36879;51.416;6.678;2022-09-16T14:57:48;4.20;;;0.93;;
50900;SDS011;36879;51.416;6.678;2022-09-16T15:00:15;7.43;;;1.25;;
50900;SDS011;36879;51.416;6.678;2022-09-16T15:03:05;1.45;;;0.85;;
50900;SDS011;36879;51.416;6.678;2022-09-16T15:05:33;4.57;;;1.90;;
50900;SDS011;36879;51.416;6.678;2022-09-16T15:08:06;3.75;;;0.77;;
50900;SDS011;36879;51.416;6.678;2022-09-16T15:10:33;1.30;;;0.80;;
50900;SDS011;36879;51.416;6.678;2022-09-16T15:13:03;2.25;;;0.90;;
50900;SDS011;36879;51.416;6.678;2022-09-16T15:15:33;0.70;;;0.60;;
50900;SDS011;36879;51.416;6.678;2022-09-16T15:20:27;1.80;;;0.80;;
50900;SDS011;36879;51.416;6.678;2022-09-16T15:22:53;3.25;;;0.77;;
50900;SDS011;36879;51.416;6.678;2022-09-16T15:25:21;5.05;;;0.85;;
50900;SDS011;36879;51.416;6.678;2022-09-16T15:27:47;2.75;;;1.00;;
50900;SDS011;36879;51.416;6.678;2022-09-16T15:30:21;1.95;;;0.63;;
50900;SDS011;36879;51.416;6.678;2022-09-16T15:32:47;4.68;;;1.10;;
50900;SDS011;36879;51.416;6.678;2022-09-16T15:35:23;2.75;;;0.75;;
50900;SDS011;36879;51.416;6.678;2022-09-16T15:37:51;4.00;;;1.65;;
50900;SDS011;36879;51.416;6.678;2022-09-16T15:43:01;2.92;;;0.85;;
50900;SDS011;36879;51.416;6.678;2022-09-16T15:45:31;3.85;;;1.13;;
50900;SDS011;36879;51.416;6.678;2022-09-16T15:48:03;2.17;;;1.00;;
50900;SDS011;36879;51.416;6.678;2022-09-16T15:50:30;4.10;;;1.13;;
50900;SDS011;36879;51.416;6.678;2022-09-16T15:55:30;3.15;;;0.80;;
50900;SDS011;36879;51.416;6.678;2022-09-16T15:58:09;4.32;;;1.23;;
50900;SDS011;36879;51.416;6.678;2022-09-16T16:03:21;1.42;;;0.73;;
50900;SDS011;36879;51.416;6.678;2022-09-16T16:05:51;3.45;;;1.35;;
50900;SDS011;36879;51.416;6.678;2022-09-16T16:11:08;1.42;;;0.70;;
50900;SDS011;36879;51.416;6.678;2022-09-16T16:13:35;2.58;;;1.52;;
50900;SDS011;36879;51.416;6.678;2022-09-16T16:16:02;4.68;;;1.20;;
50900;SDS011;36879;51.416;6.678;2022-09-16T16:18:28;2.78;;;0.80;;
50900;SDS011;36879;51.416;6.678;2022-09-16T16:20:56;2.47;;;1.02;;
50900;SDS011;36879;51.416;6.678;2022-09-16T16:23:22;1.95;;;1.00;;
50900;SDS011;36879;51.416;6.678;2022-09-16T16:25:48;4.15;;;0.90;;
50900;SDS011;36879;51.416;6.678;2022-09-16T16:28:14;1.23;;;0.70;;
50900;SDS011;36879;51.416;6.678;2022-09-16T16:30:40;2.78;;;0.85;;
50900;SDS011;36879;51.416;6.678;2022-09-16T16:33:06;4.13;;;1.58;;
50900;SDS011;36879;51.416;6.678;2022-09-16T16:35:32;2.45;;;0.77;;
50900;SDS011;36879;51.416;6.678;2022-09-16T16:37:58;1.95;;;0.70;;
50900;SDS011;36879;51.416;6.678;2022-09-16T16:40:24;3.50;;;1.33;;
50900;SDS011;36879;51.416;6.678;2022-09-16T16:42:51;4.65;;;1.25;;
50900;SDS011;36879;51.416;6.678;2022-09-16T16:45:16;4.90;;;0.82;;
50900;SDS011;36879;51.416;6.678;2022-09-16T16:47:42;3.00;;;0.90;;
50900;SDS011;36879;51.416;6.678;2022-09-16T16:50:10;3.10;;;0.93;;
50900;SDS011;36879;51.416;6.678;2022-09-16T16:52:36;7.40;;;1.15;;
50900;SDS011;36879;51.416;6.678;2022-09-16T16:55:02;3.03;;;1.95;;
50900;SDS011;36879;51.416;6.678;2022-09-16T16:57:28;6.60;;;1.05;;
50900;SDS011;36879;51.416;6.678;2022-09-16T16:59:54;4.63;;;0.93;;
50900;SDS011;36879;51.416;6.678;2022-09-16T17:02:20;2.55;;;0.95;;
50900;SDS011;36879;51.416;6.678;2022-09-16T17:04:46;2.55;;;0.77;;
50900;SDS011;36879;51.416;6.678;2022-09-16T17:07:12;2.47;;;0.85;;
50900;SDS011;36879;51.416;6.678;2022-09-16T17:12:21;8.68;;;1.27;;
50900;SDS011;36879;51.416;6.678;2022-09-16T17:14:47;2.20;;;1.10;;
50900;SDS011;36879;51.416;6.678;2022-09-16T17:17:13;2.35;;;1.00;;
50900;SDS011;36879;51.416;6.678;2022-09-16T17:19:39;4.38;;;1.20;;
50900;SDS011;36879;51.416;6.678;2022-09-16T17:22:05;3.55;;;1.25;;
50900;SDS011;36879;51.416;6.678;2022-09-16T17:24:31;5.05;;;1.15;;
50900;SDS011;36879;51.416;6.678;2022-09-16T17:26:58;4.13;;;0.80;;
50900;SDS011;36879;51.416;6.678;2022-09-16T17:29:24;5.53;;;1.20;;
50900;SDS011;36879;51.416;6.678;2022-09-16T17:31:50;3.42;;;1.40;;
50900;SDS011;36879;51.416;6.678;2022-09-16T17:34:16;1.85;;;0.77;;
50900;SDS011;36879;51.416;6.678;2022-09-16T17:36:43;3.03;;;1.30;;
50900;SDS011;36879;51.416;6.678;2022-09-16T17:39:10;3.90;;;1.58;;
50900;SDS011;36879;51.416;6.678;2022-09-16T17:41:38;6.82;;;1.50;;
50900;SDS011;36879;51.416;6.678;2022-09-16T17:44:07;5.80;;;1.88;;
50900;SDS011;36879;51.416;6.678;2022-09-16T17:46:33;3.47;;;1.38;;
50900;SDS011;36879;51.416;6.678;2022-09-16T17:49:00;4.22;;;0.98;;
50900;SDS011;36879;51.416;6.678;2022-09-16T17:51:26;2.47;;;1.05;;
50900;SDS011;36879;51.416;6.678;2022-09-16T17:53:52;4.03;;;1.65;;
50900;SDS011;36879;51.416;6.678;2022-09-16T17:56:18;4.43;;;0.77;;
50900;SDS011;36879;51.416;6.678;2022-09-16T17:58:45;3.13;;;0.95;;
50900;SDS011;36879;51.416;6.678;2022-09-16T18:01:15;5.57;;;1.02;;
50900;SDS011;36879;51.416;6.678;2022-09-16T18:03:42;4.68;;;0.88;;
50900;SDS011;36879;51.416;6.678;2022-09-16T18:06:12;10.10;;;2.58;;
50900;SDS011;36879;51.416;6.678;2022-09-16T18:08:39;1.50;;;0.68;;
50900;SDS011;36879;51.416;6.678;2022-09-16T18:11:06;5.22;;;1.60;;
50900;SDS011;36879;51.416;6.678;2022-09-16T18:13:32;5.20;;;1.90;;
50900;SDS011;36879;51.416;6.678;2022-09-16T18:16:06;4.13;;;0.90;;